Time;durP1;ratioP1;P1;durP2;ratioP2;P2;SDS_P1;SDS_P2;PMS_P1;PMS_P2;Temp;Humidity;BMP_temperature;BMP_pressure;BME280_temperature;BME280_humidity;BME280_pressure;Samples;Min_cycle;Max_cycle;Signal;HPM_P1;HPM_P2
2021/10/15 00:00:21;;;;;;;20.80;9.55;;;;;;;;;;5002371;28;20033;-73
2021/10/15 00:02:47;;;;;;;27.45;9.00;;;;;;;;;;5004666;28;20121;-73
2021/10/15 00:05:13;;;;;;;17.48;9.02;;;;;;;;;;5005306;28;20029;-73
2021/10/15 00:07:39;;;;;;;22.55;10.07;;;;;;;;;;5005964;28;20025;-73
2021/10/15 00:10:08;;;;;;;18.27;9.23;;;;;;;;;;5003686;28;20084;-72
2021/10/15 00:12:34;;;;;;;25.10;10.05;;;;;;;;;;5007212;28;20057;-72
2021/10/15 00:15:01;;;;;;;24.75;9.50;;;;;;;;;;5004276;28;20045;-73
2021/10/15 00:17:27;;;;;;;22.77;10.50;;;;;;;;;;5008259;28;20509;-73
2021/10/15 00:19:53;;;;;;;27.42;10.73;;;;;;;;;;5004992;28;20036;-73
2021/10/15 00:22:19;;;;;;;23.40;8.95;;;;;;;;;;5006193;28;20036;-74
2021/10/15 00:24:45;;;;;;;23.58;10.40;;;;;;;;;;5006004;28;20172;-73
2021/10/15 00:27:11;;;;;;;23.05;9.88;;;;;;;;;;5005502;28;20038;-73
2021/10/15 00:29:37;;;;;;;21.42;10.73;;;;;;;;;;5003670;28;20026;-73
2021/10/15 00:32:04;;;;;;;23.98;9.32;;;;;;;;;;5004283;28;20108;-73
2021/10/15 00:34:30;;;;;;;25.58;10.60;;;;;;;;;;5010681;28;20200;-73
2021/10/15 00:36:56;;;;;;;23.85;10.52;;;;;;;;;;5005275;28;20060;-73
2021/10/15 00:39:22;;;;;;;19.42;10.43;;;;;;;;;;5003559;28;20097;-73
2021/10/15 00:41:48;;;;;;;24.92;11.77;;;;;;;;;;5004843;28;20479;-72
2021/10/15 00:44:14;;;;;;;18.92;10.93;;;;;;;;;;5010890;28;20414;-73
2021/10/15 00:46:41;;;;;;;25.17;10.73;;;;;;;;;;5009166;28;20026;-72
2021/10/15 00:49:08;;;;;;;25.58;10.35;;;;;;;;;;5005448;28;20034;-73
2021/10/15 00:51:35;;;;;;;25.52;11.80;;;;;;;;;;5021967;28;20070;-73
2021/10/15 00:54:02;;;;;;;22.33;10.10;;;;;;;;;;5007334;28;20044;-72
2021/10/15 00:56:29;;;;;;;20.65;10.13;;;;;;;;;;5017554;28;20018;-73
2021/10/15 00:58:55;;;;;;;25.45;10.82;;;;;;;;;;5002813;28;20026;-73
2021/10/15 01:01:21;;;;;;;26.65;10.77;;;;;;;;;;5006104;28;20063;-73
2021/10/15 01:03:47;;;;;;;25.85;11.13;;;;;;;;;;5005924;28;20461;-72
2021/10/15 01:06:14;;;;;;;27.40;10.55;;;;;;;;;;5007725;28;20026;-73
2021/10/15 01:08:41;;;;;;;22.02;11.15;;;;;;;;;;5005845;28;20510;-72
2021/10/15 01:11:07;;;;;;;23.15;10.82;;;;;;;;;;5005911;28;20025;-73
2021/10/15 01:13:33;;;;;;;30.52;10.55;;;;;;;;;;5008815;28;20094;-72
2021/10/15 01:16:03;;;;;;;37.58;12.23;;;;;;;;;;5007993;28;20034;-73
2021/10/15 01:18:29;;;;;;;19.00;10.30;;;;;;;;;;5005017;28;20084;-73
2021/10/15 01:20:55;;;;;;;30.45;11.35;;;;;;;;;;5009303;28;20049;-73
2021/10/15 01:23:21;;;;;;;23.70;11.98;;;;;;;;;;5007619;28;20033;-73
2021/10/15 01:25:51;;;;;;;23.20;10.95;;;;;;;;;;5007772;28;20513;-73
2021/10/15 01:28:17;;;;;;;24.42;10.40;;;;;;;;;;5006204;28;20029;-72
2021/10/15 01:30:43;;;;;;;22.27;10.15;;;;;;;;;;5007346;28;20029;-75
2021/10/15 01:33:09;;;;;;;23.63;10.65;;;;;;;;;;5008120;28;20026;-73
2021/10/15 01:35:35;;;;;;;26.90;10.48;;;;;;;;;;5008557;28;20026;-72
2021/10/15 01:38:01;;;;;;;25.75;9.82;;;;;;;;;;5004939;28;20541;-72
2021/10/15 01:40:27;;;;;;;24.33;10.85;;;;;;;;;;5006177;28;20030;-72
2021/10/15 01:42:54;;;;;;;28.63;11.43;;;;;;;;;;5006677;28;20040;-73
2021/10/15 01:45:20;;;;;;;30.88;12.93;;;;;;;;;;5008442;28;20104;-73
2021/10/15 01:47:46;;;;;;;26.70;10.73;;;;;;;;;;5009039;28;20034;-72
2021/10/15 01:50:12;;;;;;;24.88;11.45;;;;;;;;;;5011074;28;20022;-72
2021/10/15 01:52:39;;;;;;;26.40;11.65;;;;;;;;;;5003525;28;20029;-73
2021/10/15 01:55:07;;;;;;;23.98;12.43;;;;;;;;;;5011003;28;20045;-73
2021/10/15 01:57:33;;;;;;;24.75;11.50;;;;;;;;;;5013527;28;20037;-73
2021/10/15 01:59:59;;;;;;;26.15;10.85;;;;;;;;;;5008795;28;20584;-73
2021/10/15 02:02:25;;;;;;;27.85;11.10;;;;;;;;;;5008652;28;20125;-73
2021/10/15 02:04:52;;;;;;;27.40;10.52;;;;;;;;;;5027237;28;20049;-73
2021/10/15 02:07:18;;;;;;;32.05;12.38;;;;;;;;;;5012503;28;20383;-73
2021/10/15 02:09:44;;;;;;;33.83;11.50;;;;;;;;;;5010275;28;20080;-73
2021/10/15 02:12:11;;;;;;;36.25;12.90;;;;;;;;;;5010624;28;20060;-74
2021/10/15 02:14:37;;;;;;;29.60;11.70;;;;;;;;;;5012713;28;20038;-73
2021/10/15 02:17:03;;;;;;;30.35;12.13;;;;;;;;;;5008295;28;20394;-73
2021/10/15 02:19:29;;;;;;;29.45;11.93;;;;;;;;;;5010005;28;20038;-73
2021/10/15 02:21:55;;;;;;;33.78;11.57;;;;;;;;;;5008707;28;20502;-72
2021/10/15 02:24:21;;;;;;;22.20;8.65;;;;;;;;;;5008209;28;20018;-73
2021/10/15 02:26:47;;;;;;;15.15;5.75;;;;;;;;;;5011563;28;20123;-73
2021/10/15 02:29:14;;;;;;;16.13;6.28;;;;;;;;;;5009228;28;20022;-72
2021/10/15 02:31:40;;;;;;;19.73;4.85;;;;;;;;;;5008645;28;20037;-72
2021/10/15 02:34:06;;;;;;;19.73;5.03;;;;;;;;;;5010368;28;20033;-72
2021/10/15 02:36:32;;;;;;;11.95;4.80;;;;;;;;;;5009728;28;20045;-73
2021/10/15 02:38:58;;;;;;;12.45;4.47;;;;;;;;;;5009603;28;20112;-74
2021/10/15 02:41:24;;;;;;;16.48;5.13;;;;;;;;;;5009346;28;20026;-73
2021/10/15 02:43:50;;;;;;;16.75;4.50;;;;;;;;;;5011127;28;20088;-73
2021/10/15 02:46:17;;;;;;;17.05;5.15;;;;;;;;;;5011073;28;20029;-74
2021/10/15 02:48:44;;;;;;;18.00;4.95;;;;;;;;;;5010639;28;20030;-73
2021/10/15 02:51:11;;;;;;;13.85;4.97;;;;;;;;;;5010083;28;20029;-72
2021/10/15 02:53:38;;;;;;;14.77;4.15;;;;;;;;;;5010528;28;20037;-73
2021/10/15 02:56:04;;;;;;;14.57;4.68;;;;;;;;;;5011698;28;20385;-73
2021/10/15 02:58:30;;;;;;;17.15;5.70;;;;;;;;;;5009339;28;20478;-74
2021/10/15 03:00:56;;;;;;;17.00;5.00;;;;;;;;;;5008770;28;20132;-73
2021/10/15 03:03:22;;;;;;;12.05;4.75;;;;;;;;;;5009799;28;20037;-72
2021/10/15 03:05:48;;;;;;;19.10;5.28;;;;;;;;;;5011889;28;20026;-73
2021/10/15 03:08:14;;;;;;;18.33;4.78;;;;;;;;;;5006265;28;20028;-74
2021/10/15 03:10:40;;;;;;;17.55;5.07;;;;;;;;;;5010460;28;20486;-72
2021/10/15 03:13:06;;;;;;;34.60;5.82;;;;;;;;;;5009018;28;20025;-74
2021/10/15 03:15:32;;;;;;;17.08;5.78;;;;;;;;;;5010780;28;20030;-73
2021/10/15 03:17:58;;;;;;;16.70;4.57;;;;;;;;;;5006544;28;20030;-72
2021/10/15 03:20:25;;;;;;;23.88;4.65;;;;;;;;;;5010611;28;20026;-71
2021/10/15 03:22:51;;;;;;;18.92;5.50;;;;;;;;;;5021355;28;20107;-72
2021/10/15 03:25:17;;;;;;;19.35;4.78;;;;;;;;;;5017922;28;20462;-72
2021/10/15 03:27:43;;;;;;;18.05;4.25;;;;;;;;;;5009819;28;20022;-73
2021/10/15 03:30:09;;;;;;;19.83;5.30;;;;;;;;;;5007985;28;20662;-73
2021/10/15 03:32:35;;;;;;;12.05;4.57;;;;;;;;;;5007766;28;20121;-73
2021/10/15 03:35:01;;;;;;;27.05;5.57;;;;;;;;;;5011344;28;20026;-73
2021/10/15 03:37:28;;;;;;;19.73;6.25;;;;;;;;;;5008726;28;20058;-73
2021/10/15 03:39:54;;;;;;;20.15;6.35;;;;;;;;;;5006688;28;20398;-73
2021/10/15 03:42:20;;;;;;;17.60;6.00;;;;;;;;;;5005451;28;20074;-73
2021/10/15 03:44:46;;;;;;;17.73;4.60;;;;;;;;;;5016390;28;20558;-72
2021/10/15 03:47:13;;;;;;;12.43;4.63;;;;;;;;;;5008945;28;20165;-73
2021/10/15 03:49:39;;;;;;;17.35;6.40;;;;;;;;;;5006973;28;20032;-73
2021/10/15 03:52:05;;;;;;;19.65;5.68;;;;;;;;;;5006970;28;20040;-73
2021/10/15 03:54:32;;;;;;;16.70;5.05;;;;;;;;;;5010657;28;20026;-73
2021/10/15 03:56:58;;;;;;;18.95;5.72;;;;;;;;;;5007535;28;20026;-73
2021/10/15 03:59:24;;;;;;;22.25;5.50;;;;;;;;;;5009037;28;20509;-73
2021/10/15 04:01:50;;;;;;;27.55;6.50;;;;;;;;;;5006880;28;20033;-73
2021/10/15 04:04:16;;;;;;;21.27;6.05;;;;;;;;;;5009269;28;20034;-73
2021/10/15 04:06:42;;;;;;;20.73;4.95;;;;;;;;;;5010125;28;20088;-73
2021/10/15 04:09:08;;;;;;;16.55;4.93;;;;;;;;;;5007713;28;20029;-71
2021/10/15 04:11:35;;;;;;;25.52;6.78;;;;;;;;;;5013023;28;20026;-70
2021/10/15 04:14:01;;;;;;;21.80;6.38;;;;;;;;;;5008295;28;20034;-73
2021/10/15 04:16:28;;;;;;;18.98;6.20;;;;;;;;;;5010439;28;20386;-72
2021/10/15 04:18:54;;;;;;;16.73;6.30;;;;;;;;;;5005262;28;20452;-73
2021/10/15 04:21:20;;;;;;;19.73;6.53;;;;;;;;;;5005187;28;20490;-73
2021/10/15 04:23:46;;;;;;;18.30;5.40;;;;;;;;;;5003658;28;20038;-70
2021/10/15 04:26:12;;;;;;;22.85;6.22;;;;;;;;;;5007986;28;20521;-73
2021/10/15 04:28:38;;;;;;;13.60;5.35;;;;;;;;;;5006361;28;20026;-73
2021/10/15 04:31:04;;;;;;;18.77;5.82;;;;;;;;;;5005987;28;20679;-71
2021/10/15 04:33:30;;;;;;;16.10;4.88;;;;;;;;;;5007756;28;20478;-73
2021/10/15 04:35:56;;;;;;;19.30;5.45;;;;;;;;;;5008471;28;20085;-73
2021/10/15 04:38:22;;;;;;;23.83;5.93;;;;;;;;;;5009874;28;20041;-74
2021/10/15 04:40:48;;;;;;;17.60;4.75;;;;;;;;;;5008241;28;20029;-72
2021/10/15 04:43:14;;;;;;;17.05;5.82;;;;;;;;;;5024876;28;20092;-72
2021/10/15 04:45:40;;;;;;;21.88;5.78;;;;;;;;;;5004815;28;20117;-72
2021/10/15 04:48:06;;;;;;;13.60;5.03;;;;;;;;;;5005934;28;20250;-73
2021/10/15 04:50:36;;;;;;;18.25;5.38;;;;;;;;;;5006305;28;20018;-72
2021/10/15 04:53:03;;;;;;;22.30;5.00;;;;;;;;;;5006151;28;20156;-73
2021/10/15 04:55:29;;;;;;;21.90;4.70;;;;;;;;;;5008082;28;20026;-72
2021/10/15 04:57:57;;;;;;;22.35;6.10;;;;;;;;;;5006319;28;20103;-72
2021/10/15 05:00:23;;;;;;;21.23;4.63;;;;;;;;;;5015682;28;20014;-73
2021/10/15 05:02:51;;;;;;;14.13;5.55;;;;;;;;;;5011596;28;20253;-72
2021/10/15 05:05:24;;;;;;;15.20;4.97;;;;;;;;;;5012352;28;20033;-72
2021/10/15 05:07:50;;;;;;;23.13;5.25;;;;;;;;;;5009274;28;20022;-71
2021/10/15 05:10:16;;;;;;;17.02;5.22;;;;;;;;;;5009237;28;20032;-71
2021/10/15 05:12:43;;;;;;;15.88;5.50;;;;;;;;;;5006115;28;20018;-72
2021/10/15 05:15:12;;;;;;;16.45;5.97;;;;;;;;;;5008822;28;20132;-72
2021/10/15 05:17:38;;;;;;;18.40;5.18;;;;;;;;;;5007062;28;20053;-72
2021/10/15 05:20:06;;;;;;;22.92;5.20;;;;;;;;;;5005076;28;20044;-72
2021/10/15 05:22:32;;;;;;;21.02;4.90;;;;;;;;;;5028078;28;20026;-72
2021/10/15 05:24:58;;;;;;;20.63;5.28;;;;;;;;;;5010596;28;20117;-72
2021/10/15 05:27:24;;;;;;;14.65;4.70;;;;;;;;;;5126273;22;20053;-72
2021/10/15 05:29:50;;;;;;;20.27;5.00;;;;;;;;;;5041446;28;20032;-72
2021/10/15 05:32:17;;;;;;;22.27;5.28;;;;;;;;;;5026401;28;20071;-71
2021/10/15 05:34:44;;;;;;;20.63;5.30;;;;;;;;;;5048406;28;20521;-71
2021/10/15 05:37:10;;;;;;;22.55;5.47;;;;;;;;;;5025040;28;20025;-71
2021/10/15 05:39:36;;;;;;;15.30;5.28;;;;;;;;;;5042541;28;20132;-70
2021/10/15 05:42:02;;;;;;;16.42;5.93;;;;;;;;;;5030529;28;20112;-71
2021/10/15 05:44:28;;;;;;;23.48;5.22;;;;;;;;;;5033600;28;20037;-72
2021/10/15 05:46:54;;;;;;;23.02;6.00;;;;;;;;;;5047624;28;20168;-70
2021/10/15 05:49:20;;;;;;;22.17;6.47;;;;;;;;;;5025769;28;20032;-70
2021/10/15 05:51:49;;;;;;;21.80;6.28;;;;;;;;;;5031332;28;20030;-70
2021/10/15 05:54:24;;;;;;;28.08;7.80;;;;;;;;;;5033837;28;20108;-69
2021/10/15 05:57:16;;;;;;;20.00;5.45;;;;;;;;;;5033602;28;20040;-70
2021/10/15 05:59:42;;;;;;;22.52;5.13;;;;;;;;;;5030520;28;20053;-70
2021/10/15 06:02:08;;;;;;;18.17;5.95;;;;;;;;;;5024155;28;20033;-70
2021/10/15 06:15:10;;;;;;;24.55;6.13;;;;;;;;;;5025056;28;20589;-71
2021/10/15 06:17:43;;;;;;;21.52;5.97;;;;;;;;;;5033102;28;20392;-70
2021/10/15 06:20:10;;;;;;;16.98;5.38;;;;;;;;;;5029858;28;20446;-71
2021/10/15 06:22:36;;;;;;;21.13;6.15;;;;;;;;;;5032321;28;20017;-71
2021/10/15 06:25:02;;;;;;;22.33;7.53;;;;;;;;;;5032489;28;20033;-70
2021/10/15 06:27:28;;;;;;;24.45;7.60;;;;;;;;;;5032928;28;20037;-71
2021/10/15 06:29:54;;;;;;;16.63;5.72;;;;;;;;;;5029119;28;20025;-71
2021/10/15 06:32:21;;;;;;;19.77;6.55;;;;;;;;;;5032221;28;20033;-70
2021/10/15 06:34:48;;;;;;;19.13;6.68;;;;;;;;;;5047395;28;20037;-70
2021/10/15 06:37:15;;;;;;;17.38;5.30;;;;;;;;;;5031992;28;20025;-70
2021/10/15 06:39:41;;;;;;;17.50;5.53;;;;;;;;;;5021710;28;20021;-71
2021/10/15 06:42:07;;;;;;;18.75;5.57;;;;;;;;;;5047494;28;20028;-70
2021/10/15 06:44:33;;;;;;;24.73;5.95;;;;;;;;;;5048132;28;20022;-71
2021/10/15 06:46:59;;;;;;;15.65;5.30;;;;;;;;;;5047605;28;20037;-71
2021/10/15 06:49:25;;;;;;;19.75;5.65;;;;;;;;;;5029777;28;20021;-70
2021/10/15 06:51:51;;;;;;;20.85;5.13;;;;;;;;;;5031073;28;20029;-71
2021/10/15 06:54:17;;;;;;;19.00;5.40;;;;;;;;;;5044147;28;20117;-71
2021/10/15 06:56:44;;;;;;;26.95;8.20;;;;;;;;;;5032269;28;20033;-69
2021/10/15 06:59:10;;;;;;;17.60;5.47;;;;;;;;;;5029785;28;20022;-71
2021/10/15 07:01:36;;;;;;;20.30;6.38;;;;;;;;;;5047041;28;20029;-71
2021/10/15 07:04:02;;;;;;;20.95;6.57;;;;;;;;;;5046615;28;20566;-70
2021/10/15 07:06:28;;;;;;;19.58;7.13;;;;;;;;;;5031470;28;20057;-70
2021/10/15 07:08:54;;;;;;;13.32;6.18;;;;;;;;;;5029153;28;20036;-70
2021/10/15 07:11:20;;;;;;;24.95;6.72;;;;;;;;;;5032119;28;20049;-70
2021/10/15 07:13:46;;;;;;;17.98;6.57;;;;;;;;;;5031663;28;20029;-70
2021/10/15 07:16:13;;;;;;;18.52;3.03;;;;;;;;;;5031595;28;20029;-69
2021/10/15 07:18:39;;;;;;;15.93;2.60;;;;;;;;;;5028794;28;20484;-70
2021/10/15 07:21:07;;;;;;;15.60;2.28;;;;;;;;;;5031670;28;20407;-69
2021/10/15 07:23:33;;;;;;;17.70;3.67;;;;;;;;;;5045934;28;20025;-70
2021/10/15 07:26:00;;;;;;;15.68;2.45;;;;;;;;;;5030408;28;20030;-70
2021/10/15 07:28:27;;;;;;;16.02;2.45;;;;;;;;;;5028812;28;20734;-70
2021/10/15 07:30:53;;;;;;;11.80;2.25;;;;;;;;;;5030957;28;20171;-70
2021/10/15 07:33:19;;;;;;;14.98;2.45;;;;;;;;;;5046299;28;20345;-68
2021/10/15 07:35:45;;;;;;;18.85;3.15;;;;;;;;;;5031143;28;20393;-69
2021/10/15 07:38:11;;;;;;;15.48;2.38;;;;;;;;;;5041135;28;20507;-68
2021/10/15 07:40:37;;;;;;;18.60;3.10;;;;;;;;;;5031219;28;20025;-68
2021/10/15 07:43:03;;;;;;;18.30;3.10;;;;;;;;;;5027315;28;20233;-68
2021/10/15 07:45:30;;;;;;;16.23;2.85;;;;;;;;;;5021713;28;20117;-68
2021/10/15 07:47:56;;;;;;;19.10;3.15;;;;;;;;;;5029915;28;20021;-68
2021/10/15 07:50:22;;;;;;;20.80;3.53;;;;;;;;;;5030148;28;20032;-68
2021/10/15 07:52:48;;;;;;;19.20;2.33;;;;;;;;;;5045384;28;20040;-68
2021/10/15 07:55:14;;;;;;;16.45;2.38;;;;;;;;;;5031177;28;20496;-68
2021/10/15 07:57:40;;;;;;;22.67;4.32;;;;;;;;;;5031607;28;20044;-68
2021/10/15 08:00:08;;;;;;;17.52;3.05;;;;;;;;;;5027758;28;20025;-68
2021/10/15 08:02:34;;;;;;;21.55;3.40;;;;;;;;;;5030695;28;20033;-68
2021/10/15 08:05:00;;;;;;;12.43;2.53;;;;;;;;;;5022593;28;20408;-67
2021/10/15 08:07:26;;;;;;;16.80;2.88;;;;;;;;;;5045487;28;20488;-68
2021/10/15 08:09:52;;;;;;;20.90;3.05;;;;;;;;;;5042316;28;20495;-68
2021/10/15 08:12:18;;;;;;;18.50;3.38;;;;;;;;;;5031038;28;20022;-68
2021/10/15 08:14:45;;;;;;;22.13;2.53;;;;;;;;;;5030957;28;20033;-68
2021/10/15 08:17:11;;;;;;;14.88;2.22;;;;;;;;;;5030309;28;20048;-68
2021/10/15 08:19:37;;;;;;;13.23;2.03;;;;;;;;;;5028065;28;20025;-67
2021/10/15 08:22:04;;;;;;;23.63;3.38;;;;;;;;;;5029764;28;20455;-68
2021/10/15 08:24:30;;;;;;;18.25;2.53;;;;;;;;;;5030731;28;20116;-67
2021/10/15 08:26:56;;;;;;;15.73;3.30;;;;;;;;;;5030319;28;20017;-69
2021/10/15 08:29:25;;;;;;;18.45;2.50;;;;;;;;;;5027942;28;20029;-67
2021/10/15 08:31:52;;;;;;;23.73;3.13;;;;;;;;;;5029610;28;20034;-67
2021/10/15 08:34:19;;;;;;;25.02;2.67;;;;;;;;;;5022157;28;20021;-67
2021/10/15 08:36:46;;;;;;;17.80;2.25;;;;;;;;;;5044873;28;20025;-67
2021/10/15 08:39:17;;;;;;;20.33;2.30;;;;;;;;;;5027585;28;20479;-68
2021/10/15 08:41:43;;;;;;;15.70;4.15;;;;;;;;;;5019901;28;20025;-67
2021/10/15 08:44:09;;;;;;;22.15;3.03;;;;;;;;;;5030415;28;20029;-67
2021/10/15 08:46:36;;;;;;;17.60;2.53;;;;;;;;;;5029979;28;20075;-68
2021/10/15 08:49:02;;;;;;;26.63;2.70;;;;;;;;;;5027722;28;20030;-68
2021/10/15 08:51:30;;;;;;;12.60;1.80;;;;;;;;;;5044890;28;20024;-68
2021/10/15 08:53:58;;;;;;;18.35;2.35;;;;;;;;;;5045257;28;20029;-68
2021/10/15 08:56:27;;;;;;;10.60;2.70;;;;;;;;;;5030328;28;20033;-68
2021/10/15 08:59:00;;;;;;;16.15;2.83;;;;;;;;;;5042656;28;20090;-68
2021/10/15 09:01:27;;;;;;;15.90;3.40;;;;;;;;;;5021603;28;20405;-68
2021/10/15 09:04:17;;;;;;;22.65;3.38;;;;;;;;;;5029906;28;20083;-68
2021/10/15 09:06:44;;;;;;;21.33;2.85;;;;;;;;;;5029506;28;20032;-67
2021/10/15 09:09:10;;;;;;;20.92;2.80;;;;;;;;;;5018855;28;20479;-67
2021/10/15 09:11:41;;;;;;;18.30;2.47;;;;;;;;;;5021461;28;20056;-67
2021/10/15 09:14:10;;;;;;;14.20;2.00;;;;;;;;;;5045391;28;20034;-67
2021/10/15 09:16:55;;;;;;;13.65;3.13;;;;;;;;;;5029724;28;20091;-67
2021/10/15 09:19:25;;;;;;;17.48;2.78;;;;;;;;;;5021319;28;20418;-67
2021/10/15 09:22:06;;;;;;;10.43;1.98;;;;;;;;;;5029111;28;20029;-67
2021/10/15 09:24:35;;;;;;;12.82;2.47;;;;;;;;;;5029731;28;20030;-68
2021/10/15 09:27:10;;;;;;;29.65;3.00;;;;;;;;;;5029891;28;20395;-67
2021/10/15 09:29:43;;;;;;;9.23;1.83;;;;;;;;;;5042676;28;20017;-67
2021/10/15 09:32:09;;;;;;;23.38;2.88;;;;;;;;;;5021544;28;20108;-67
2021/10/15 09:34:35;;;;;;;20.60;2.53;;;;;;;;;;5029576;28;20026;-68
2021/10/15 09:37:01;;;;;;;19.60;3.88;;;;;;;;;;5044207;28;20065;-67
2021/10/15 09:39:27;;;;;;;14.20;2.63;;;;;;;;;;5026211;28;20025;-68
2021/10/15 09:41:54;;;;;;;21.67;2.40;;;;;;;;;;5029158;28;20030;-67
2021/10/15 09:44:33;;;;;;;26.92;3.50;;;;;;;;;;5030061;28;20025;-67
2021/10/15 09:47:13;;;;;;;14.00;2.88;;;;;;;;;;5029024;28;20567;-67
2021/10/15 09:49:49;;;;;;;12.25;2.30;;;;;;;;;;5019915;28;20416;-68
2021/10/15 09:52:32;;;;;;;11.77;2.35;;;;;;;;;;5021870;28;20021;-68
2021/10/15 09:55:00;;;;;;;18.63;2.88;;;;;;;;;;5029723;28;20064;-68
2021/10/15 09:57:30;;;;;;;13.25;2.40;;;;;;;;;;5045013;28;20154;-68
2021/10/15 09:59:57;;;;;;;17.70;3.22;;;;;;;;;;5018318;28;20492;-68
2021/10/15 10:02:23;;;;;;;18.27;3.25;;;;;;;;;;5029696;28;20077;-68
2021/10/15 10:04:50;;;;;;;8.55;2.60;;;;;;;;;;5029036;28;20558;-68
2021/10/15 10:07:16;;;;;;;14.27;2.30;;;;;;;;;;5044484;28;20388;-68
2021/10/15 10:09:42;;;;;;;17.85;2.55;;;;;;;;;;5044781;28;20491;-68
2021/10/15 10:12:09;;;;;;;20.33;3.15;;;;;;;;;;5033245;28;20092;-68
2021/10/15 10:14:35;;;;;;;18.20;2.50;;;;;;;;;;5033182;28;20029;-68
2021/10/15 10:17:02;;;;;;;14.82;2.65;;;;;;;;;;5030000;28;20466;-68
2021/10/15 10:19:29;;;;;;;26.40;3.55;;;;;;;;;;5024925;28;20272;-68
2021/10/15 10:21:55;;;;;;;15.95;2.28;;;;;;;;;;5032068;28;20536;-68
2021/10/15 10:24:25;;;;;;;20.05;2.72;;;;;;;;;;5033229;28;20030;-68
2021/10/15 10:26:52;;;;;;;19.88;3.83;;;;;;;;;;5045776;28;20040;-68
2021/10/15 10:29:19;;;;;;;19.65;2.75;;;;;;;;;;5023274;28;20533;-68
2021/10/15 10:31:45;;;;;;;12.82;2.65;;;;;;;;;;5047062;28;20487;-68
2021/10/15 10:34:14;;;;;;;18.55;2.28;;;;;;;;;;5032806;28;20086;-68
2021/10/15 10:36:41;;;;;;;19.08;2.65;;;;;;;;;;5031176;28;20041;-68
2021/10/15 10:39:19;;;;;;;19.73;3.47;;;;;;;;;;5029338;28;20033;-68
2021/10/15 10:42:04;;;;;;;22.58;3.58;;;;;;;;;;5031995;28;20064;-68
2021/10/15 10:44:30;;;;;;;12.82;2.90;;;;;;;;;;5032664;28;20064;-68
2021/10/15 10:47:06;;;;;;;14.55;2.10;;;;;;;;;;5027350;28;20033;-68
2021/10/15 10:49:32;;;;;;;14.10;2.13;;;;;;;;;;5029855;28;20018;-68
2021/10/15 10:52:11;;;;;;;14.93;3.25;;;;;;;;;;5031228;28;20025;-68
2021/10/15 10:54:38;;;;;;;20.65;2.05;;;;;;;;;;5047537;28;20021;-67
2021/10/15 10:57:18;;;;;;;12.88;2.05;;;;;;;;;;5047027;28;20582;-68
2021/10/15 10:59:45;;;;;;;12.63;1.95;;;;;;;;;;5029340;28;20026;-68
2021/10/15 11:02:11;;;;;;;10.50;2.55;;;;;;;;;;5031743;28;20424;-68
2021/10/15 11:04:38;;;;;;;9.38;2.15;;;;;;;;;;5030696;28;20100;-68
2021/10/15 11:07:05;;;;;;;16.50;2.70;;;;;;;;;;5045338;28;20044;-68
2021/10/15 11:09:43;;;;;;;12.68;2.50;;;;;;;;;;5028958;28;20105;-68
2021/10/15 11:12:10;;;;;;;21.10;3.28;;;;;;;;;;5032309;28;20026;-68
2021/10/15 11:14:56;;;;;;;12.93;1.92;;;;;;;;;;5032196;28;20120;-68
2021/10/15 11:17:46;;;;;;;15.48;2.78;;;;;;;;;;5031661;28;20026;-68
2021/10/15 11:20:19;;;;;;;9.70;2.05;;;;;;;;;;5043736;28;20026;-68
2021/10/15 11:22:53;;;;;;;14.05;2.13;;;;;;;;;;5045379;28;20091;-69
2021/10/15 11:25:20;;;;;;;14.20;2.20;;;;;;;;;;5031555;28;20029;-70
2021/10/15 11:27:49;;;;;;;14.63;2.35;;;;;;;;;;5031327;28;20465;-69
2021/10/15 11:30:15;;;;;;;9.63;1.92;;;;;;;;;;5044731;28;20435;-68
2021/10/15 11:32:43;;;;;;;14.05;2.40;;;;;;;;;;5031730;28;20017;-68
2021/10/15 11:35:30;;;;;;;17.27;2.40;;;;;;;;;;5046009;28;20036;-68
2021/10/15 11:38:06;;;;;;;11.55;2.00;;;;;;;;;;5039974;28;20112;-69
2021/10/15 11:40:32;;;;;;;9.18;2.17;;;;;;;;;;5030713;28;20033;-69
2021/10/15 11:43:07;;;;;;;9.00;1.98;;;;;;;;;;5024673;28;20026;-68
2021/10/15 11:45:35;;;;;;;11.25;2.22;;;;;;;;;;5030041;28;20043;-68
2021/10/15 11:48:02;;;;;;;8.20;1.73;;;;;;;;;;5044233;28;20116;-68
2021/10/15 11:50:49;;;;;;;10.48;2.10;;;;;;;;;;5030232;28;20048;-68
2021/10/15 11:53:16;;;;;;;11.88;2.83;;;;;;;;;;5022736;28;20033;-68
2021/10/15 11:55:43;;;;;;;12.18;3.60;;;;;;;;;;5027830;28;20018;-68
2021/10/15 11:58:18;;;;;;;11.82;1.85;;;;;;;;;;5027455;28;20309;-68
2021/10/15 12:01:04;;;;;;;11.75;1.95;;;;;;;;;;5041331;28;20017;-68
2021/10/15 12:03:41;;;;;;;12.77;1.98;;;;;;;;;;5016813;28;20029;-68
2021/10/15 12:06:18;;;;;;;10.55;2.08;;;;;;;;;;5026990;28;20022;-68
2021/10/15 12:08:45;;;;;;;12.25;2.63;;;;;;;;;;5026562;28;20021;-69
2021/10/15 12:11:19;;;;;;;13.95;2.03;;;;;;;;;;5027377;28;20022;-69
2021/10/15 12:13:46;;;;;;;12.13;1.90;;;;;;;;;;5029670;28;20078;-69
2021/10/15 12:16:26;;;;;;;14.07;1.70;;;;;;;;;;5029315;28;20024;-69
2021/10/15 12:18:57;;;;;;;12.50;2.35;;;;;;;;;;5026373;28;20094;-70
2021/10/15 12:21:29;;;;;;;13.57;2.25;;;;;;;;;;5027848;28;20021;-69
2021/10/15 12:23:55;;;;;;;7.55;1.70;;;;;;;;;;5028390;28;20503;-69
2021/10/15 12:26:22;;;;;;;11.43;1.65;;;;;;;;;;5028482;28;20034;-69
2021/10/15 12:28:48;;;;;;;10.68;1.95;;;;;;;;;;5025226;28;20049;-68
2021/10/15 12:31:24;;;;;;;19.50;2.25;;;;;;;;;;5028066;28;20550;-69
2021/10/15 12:34:19;;;;;;;9.02;1.73;;;;;;;;;;5030201;28;20112;-69
2021/10/15 12:36:45;;;;;;;8.50;1.20;;;;;;;;;;5020464;28;20053;-69
2021/10/15 12:39:17;;;;;;;12.93;2.78;;;;;;;;;;5026066;28;20029;-69
2021/10/15 12:41:43;;;;;;;9.82;1.60;;;;;;;;;;5029392;28;20032;-68
2021/10/15 12:44:22;;;;;;;9.80;1.67;;;;;;;;;;5030694;28;20041;-69
2021/10/15 12:47:07;;;;;;;15.75;1.98;;;;;;;;;;5042569;28;20030;-69
2021/10/15 12:49:52;;;;;;;14.10;2.00;;;;;;;;;;5020484;28;20040;-69
2021/10/15 12:52:28;;;;;;;10.27;2.42;;;;;;;;;;5027359;28;20108;-69
2021/10/15 12:54:54;;;;;;;9.57;1.90;;;;;;;;;;5028205;28;20100;-68
2021/10/15 12:57:21;;;;;;;10.52;1.70;;;;;;;;;;5029023;28;20029;-68
2021/10/15 13:00:04;;;;;;;6.45;1.38;;;;;;;;;;5021813;28;20021;-67
2021/10/15 13:02:30;;;;;;;9.60;1.60;;;;;;;;;;5029845;28;20036;-68
2021/10/15 13:04:58;;;;;;;11.13;1.90;;;;;;;;;;5029274;28;20029;-68
2021/10/15 13:07:24;;;;;;;7.85;1.50;;;;;;;;;;5024064;28;20018;-68
2021/10/15 13:09:50;;;;;;;9.90;1.58;;;;;;;;;;5023325;28;20057;-68
2021/10/15 13:12:16;;;;;;;11.55;1.85;;;;;;;;;;5027905;28;20032;-68
2021/10/15 13:14:42;;;;;;;10.07;2.50;;;;;;;;;;5044251;28;20091;-67
2021/10/15 13:17:09;;;;;;;8.60;1.60;;;;;;;;;;5029091;28;20045;-67
2021/10/15 13:19:35;;;;;;;14.52;2.00;;;;;;;;;;5025823;28;20029;-68
2021/10/15 13:22:02;;;;;;;11.40;2.03;;;;;;;;;;5028604;28;20037;-68
2021/10/15 13:24:28;;;;;;;14.38;2.40;;;;;;;;;;5026125;28;20083;-68
2021/10/15 13:26:54;;;;;;;11.15;2.22;;;;;;;;;;5027552;28;20030;-68
2021/10/15 13:29:20;;;;;;;15.82;2.53;;;;;;;;;;5040195;28;20053;-68
2021/10/15 13:31:46;;;;;;;14.13;2.72;;;;;;;;;;5026551;28;20033;-69
2021/10/15 13:34:12;;;;;;;15.90;2.25;;;;;;;;;;5029235;28;20032;-68
2021/10/15 13:36:42;;;;;;;12.65;2.55;;;;;;;;;;5027609;28;20037;-68
2021/10/15 13:39:10;;;;;;;18.23;3.67;;;;;;;;;;5018083;28;20017;-68
2021/10/15 13:42:01;;;;;;;11.95;2.40;;;;;;;;;;5030230;28;20022;-68
2021/10/15 13:49:57;;;;;;;13.63;2.40;;;;;;;;;;5029082;28;20369;-68
2021/10/15 13:52:24;;;;;;;14.65;2.95;;;;;;;;;;5029219;28;20024;-68
2021/10/15 13:54:51;;;;;;;25.75;4.05;;;;;;;;;;5031623;28;20064;-68
2021/10/15 13:57:19;;;;;;;21.20;3.97;;;;;;;;;;5027621;28;20021;-68
2021/10/15 14:00:12;;;;;;;15.65;2.45;;;;;;;;;;5021215;28;20424;-68
2021/10/15 14:02:33;;;;;;;16.65;2.60;;;;;;;;;;5019399;28;20041;-69
2021/10/15 14:04:59;;;;;;;22.75;3.33;;;;;;;;;;5029607;28;20029;-68
2021/10/15 14:07:25;;;;;;;16.23;2.65;;;;;;;;;;5022652;28;20022;-68
2021/10/15 14:09:52;;;;;;;21.55;3.95;;;;;;;;;;5046563;28;20526;-68
2021/10/15 14:12:19;;;;;;;14.75;2.92;;;;;;;;;;5032365;28;20034;-67
2021/10/15 14:14:45;;;;;;;20.50;3.10;;;;;;;;;;5040558;28;20065;-68
2021/10/15 14:17:12;;;;;;;19.17;3.03;;;;;;;;;;5039820;28;20029;-68
2021/10/15 14:19:38;;;;;;;15.65;2.55;;;;;;;;;;5027225;28;20376;-68
2021/10/15 14:22:05;;;;;;;17.65;3.75;;;;;;;;;;5048336;28;20072;-68
2021/10/15 14:24:35;;;;;;;12.60;2.53;;;;;;;;;;5024063;28;20049;-68
2021/10/15 14:27:02;;;;;;;16.67;4.15;;;;;;;;;;5031956;28;20025;-66
2021/10/15 14:29:28;;;;;;;22.60;4.18;;;;;;;;;;5041454;28;20487;-68
2021/10/15 14:31:54;;;;;;;22.10;3.95;;;;;;;;;;5045667;28;20029;-68
2021/10/15 14:34:20;;;;;;;17.52;3.25;;;;;;;;;;5030767;28;20030;-68
2021/10/15 14:36:47;;;;;;;19.00;3.47;;;;;;;;;;5030064;28;20113;-68
2021/10/15 14:39:13;;;;;;;25.63;3.65;;;;;;;;;;5029580;28;20087;-68
2021/10/15 14:41:39;;;;;;;19.02;3.03;;;;;;;;;;5030835;28;20022;-68
2021/10/15 14:44:05;;;;;;;17.90;3.47;;;;;;;;;;5046220;28;20021;-68
2021/10/15 14:46:32;;;;;;;21.98;3.90;;;;;;;;;;5046384;28;20033;-68
2021/10/15 14:48:58;;;;;;;27.38;4.13;;;;;;;;;;5027886;28;20210;-69